Time;durP1;ratioP1;P1;durP2;ratioP2;P2;SDS_P1;SDS_P2;PMS_P1;PMS_P2;Temp;Humidity;BMP_temperature;BMP_pressure;BME280_temperature;BME280_humidity;BME280_pressure;Samples;Min_cycle;Max_cycle;Signal;HPM_P1;HPM_P2
2023/03/26 00:02:38;;;;;;;9.80;1.60;;;8.20;99.90;;;;;;20558411;28;20158;-42
2023/03/26 00:12:39;;;;;;;5.38;2.30;;;8.30;99.90;;;;;;20579223;28;20483;-42
2023/03/26 00:22:40;;;;;;;3.95;1.45;;;8.30;99.90;;;;;;20580180;28;20046;-42
2023/03/26 00:32:42;;;;;;;4.30;1.33;;;8.20;99.90;;;;;;20575137;28;20212;-42
2023/03/26 00:42:43;;;;;;;6.75;2.08;;;8.20;99.90;;;;;;20573804;28;20049;-42
2023/03/26 00:52:45;;;;;;;7.25;1.88;;;8.20;99.90;;;;;;20566043;28;20043;-43
2023/03/26 01:02:46;;;;;;;5.60;1.80;;;8.20;99.90;;;;;;20566538;28;20050;-42
2023/03/26 01:12:47;;;;;;;15.15;4.00;;;8.30;99.90;;;;;;20562837;28;20042;-42
2023/03/26 01:22:52;;;;;;;8.18;2.88;;;8.30;99.90;;;;;;20551705;28;20246;-42
2023/03/26 01:33:14;;;;;;;8.52;1.80;;;8.30;99.90;;;;;;20553545;28;20430;-43
2023/03/26 01:43:27;;;;;;;12.40;3.17;;;8.30;99.90;;;;;;20561480;28;20478;-42
2023/03/26 01:53:32;;;;;;;12.55;3.33;;;8.30;99.90;;;;;;20552977;28;20479;-42
2023/03/26 02:03:45;;;;;;;8.50;2.70;;;8.30;99.90;;;;;;20539439;28;20105;-42
2023/03/26 02:13:48;;;;;;;20.27;3.70;;;8.40;99.90;;;;;;20548734;28;20354;-42
2023/03/26 02:23:56;;;;;;;5.30;2.20;;;8.30;99.90;;;;;;20557469;28;20062;-42
2023/03/26 02:44:08;;;;;;;10.00;3.42;;;8.40;99.90;;;;;;20601527;23;20045;-41
2023/03/26 02:54:09;;;;;;;15.52;4.75;;;8.40;99.90;;;;;;20745368;28;20136;-42
2023/03/26 03:04:11;;;;;;;10.55;3.97;;;8.50;99.90;;;;;;20742806;28;20049;-41
2023/03/26 03:14:12;;;;;;;13.48;4.85;;;8.60;99.90;;;;;;20753630;28;20038;-41
2023/03/26 03:24:17;;;;;;;16.95;5.13;;;8.60;99.90;;;;;;20745472;28;20034;-41
2023/03/26 03:34:18;;;;;;;9.90;3.70;;;8.60;99.90;;;;;;20742882;28;20034;-41
2023/03/26 03:44:19;;;;;;;13.25;4.70;;;8.60;99.90;;;;;;20739115;28;20519;-41
2023/03/26 03:54:20;;;;;;;9.68;4.07;;;8.60;99.90;;;;;;20728802;28;20037;-41
2023/03/26 04:04:23;;;;;;;7.55;2.90;;;8.60;99.90;;;;;;20733260;28;20053;-41
2023/03/26 04:14:24;;;;;;;7.20;2.78;;;8.60;99.90;;;;;;20730024;28;20038;-41
2023/03/26 04:24:25;;;;;;;16.95;5.95;;;8.60;99.90;;;;;;20734121;28;20045;-42
2023/03/26 04:34:28;;;;;;;13.80;3.17;;;8.60;99.90;;;;;;20745349;28;20041;-41
2023/03/26 04:44:30;;;;;;;6.68;3.00;;;8.50;99.90;;;;;;20722754;28;20056;-42
2023/03/26 04:54:31;;;;;;;7.60;3.08;;;8.50;99.90;;;;;;20736071;28;20041;-42
2023/03/26 05:04:35;;;;;;;12.05;3.80;;;8.50;99.90;;;;;;20728057;28;20061;-42
2023/03/26 05:14:36;;;;;;;6.00;2.85;;;8.50;99.90;;;;;;20733800;28;20033;-42
2023/03/26 05:24:37;;;;;;;10.32;2.00;;;8.50;99.90;;;;;;20719542;28;20048;-41
2023/03/26 05:34:39;;;;;;;6.60;2.67;;;8.60;99.90;;;;;;20723421;28;20413;-42
2023/03/26 05:44:40;;;;;;;13.75;3.67;;;8.60;99.90;;;;;;20724932;28;20358;-42
2023/03/26 05:54:41;;;;;;;5.45;2.20;;;8.60;99.90;;;;;;20727987;28;20053;-42
2023/03/26 06:04:44;;;;;;;13.75;3.88;;;8.50;99.90;;;;;;20735656;28;20052;-42
2023/03/26 06:14:46;;;;;;;6.43;2.83;;;8.60;99.90;;;;;;20734071;28;20067;-41
2023/03/26 06:24:47;;;;;;;14.48;3.92;;;8.60;99.90;;;;;;20715996;28;20057;-42
2023/03/26 06:34:48;;;;;;;23.42;4.55;;;8.60;99.90;;;;;;20723131;28;20622;-42
2023/03/26 06:44:49;;;;;;;11.27;3.55;;;8.70;99.90;;;;;;20731223;28;20132;-41
2023/03/26 06:54:50;;;;;;;8.45;3.38;;;8.60;99.90;;;;;;20727500;28;20037;-41
2023/03/26 07:04:52;;;;;;;8.65;3.70;;;8.60;99.90;;;;;;20727220;28;20085;-41
2023/03/26 07:14:53;;;;;;;9.00;2.90;;;8.50;99.90;;;;;;20722393;28;20045;-41
2023/03/26 07:24:54;;;;;;;11.73;3.85;;;8.40;99.90;;;;;;20725268;28;21032;-41
2023/03/26 07:35:04;;;;;;;10.80;4.70;;;8.50;99.90;;;;;;20735264;28;20509;-41
2023/03/26 07:45:17;;;;;;;17.63;4.45;;;8.50;99.90;;;;;;20739462;28;20057;-41
2023/03/26 07:55:19;;;;;;;9.73;4.70;;;8.50;99.90;;;;;;20736362;28;20716;-41
2023/03/26 08:05:26;;;;;;;12.25;4.93;;;8.60;99.90;;;;;;20725770;28;20053;-41
2023/03/26 08:15:42;;;;;;;16.17;4.10;;;8.60;99.90;;;;;;20724322;28;20034;-41
2023/03/26 08:26:01;;;;;;;8.68;3.83;;;8.60;99.90;;;;;;20686798;28;20052;-41
2023/03/26 08:36:02;;;;;;;11.98;3.50;;;8.60;99.90;;;;;;20684519;28;20084;-41
2023/03/26 08:46:27;;;;;;;8.88;3.13;;;8.70;99.90;;;;;;20718769;28;20049;-41
2023/03/26 08:56:43;;;;;;;9.35;4.15;;;8.50;99.90;;;;;;20699040;28;20430;-41
2023/03/26 09:07:13;;;;;;;5.35;2.33;;;8.30;99.90;;;;;;20709000;28;20496;-41
2023/03/26 09:17:50;;;;;;;10.15;2.88;;;8.20;99.90;;;;;;20716472;28;20324;-41
2023/03/26 09:28:19;;;;;;;4.32;2.10;;;8.20;99.90;;;;;;20714854;28;20038;-41
2023/03/26 09:38:39;;;;;;;14.60;4.15;;;8.20;99.90;;;;;;20679829;28;21977;-41
2023/03/26 09:48:59;;;;;;;10.20;3.60;;;8.30;99.90;;;;;;20722621;28;20041;-41
2023/03/26 09:59:44;;;;;;;5.53;3.05;;;8.30;99.90;;;;;;20730703;28;20363;-41
2023/03/26 10:09:54;;;;;;;5.30;2.75;;;8.30;99.90;;;;;;20760040;28;20045;-41
2023/03/26 10:20:16;;;;;;;12.38;2.47;;;8.30;99.90;;;;;;20798840;28;20044;-41
2023/03/26 10:30:20;;;;;;;7.20;2.35;;;8.30;99.90;;;;;;20734124;28;20554;-41
2023/03/26 10:40:44;;;;;;;4.25;1.60;;;8.30;99.90;;;;;;20778564;28;20061;-40
2023/03/26 10:51:11;;;;;;;4.93;1.35;;;8.30;99.90;;;;;;20772502;28;20509;-41
2023/03/26 11:01:41;;;;;;;5.47;2.20;;;8.20;99.90;;;;;;20733977;28;20547;-41
2023/03/26 11:11:59;;;;;;;4.43;2.50;;;8.20;99.90;;;;;;20742709;28;20706;-41
2023/03/26 11:22:16;;;;;;;6.35;1.67;;;8.10;99.90;;;;;;20740541;28;20523;-41
2023/03/26 11:32:21;;;;;;;5.40;1.75;;;8.10;99.90;;;;;;20741789;28;20754;-41
2023/03/26 11:42:23;;;;;;;2.58;1.20;;;8.10;99.90;;;;;;20728665;28;20049;-41
2023/03/26 11:52:25;;;;;;;5.45;1.42;;;8.10;99.90;;;;;;20802197;28;20037;-41
2023/03/26 12:02:32;;;;;;;6.68;3.05;;;8.10;99.90;;;;;;20788535;28;20045;-40
2023/03/26 12:12:40;;;;;;;13.23;2.50;;;8.20;99.90;;;;;;20795726;28;20223;-41
2023/03/26 12:22:42;;;;;;;;;;;8.30;98.10;;;;;;20794199;28;20475;-41
2023/03/26 12:32:43;;;;;;;6.13;1.77;;;8.50;93.70;;;;;;20784136;28;19923;-41
2023/03/26 12:42:52;;;;;;;7.20;1.02;;;8.80;68.20;;;;;;20800768;28;20051;-41
2023/03/26 12:52:57;;;;;;;7.63;2.47;;;8.90;48.50;;;;;;20777709;28;20389;-41
2023/03/26 13:02:58;;;;;;;5.45;1.17;;;9.00;24.90;;;;;;20705794;28;20473;-41
2023/03/26 13:13:24;;;;;;;5.95;1.33;;;9.20;18.80;;;;;;20710944;28;20417;-40
2023/03/26 13:23:45;;;;;;;2.22;1.02;;;9.40;10.70;;;;;;20702680;28;20060;-41
2023/03/26 13:34:14;;;;;;;6.45;2.15;;;9.70;3.40;;;;;;20715006;28;20121;-41
2023/03/26 13:44:46;;;;;;;2.80;0.40;;;9.90;1.00;;;;;;20804051;28;20048;-40
2023/03/26 13:54:56;;;;;;;4.20;0.98;;;9.90;1.00;;;;;;20756079;28;20037;-41
2023/03/26 14:05:14;;;;;;;4.38;1.60;;;9.80;1.00;;;;;;20716194;28;20229;-40
2023/03/26 14:15:26;;;;;;;1.33;0.60;;;9.60;1.00;;;;;;20723383;28;20038;-41
2023/03/26 14:25:45;;;;;;;2.83;1.15;;;9.50;1.00;;;;;;20732288;28;20045;-41
2023/03/26 14:36:00;;;;;;;2.55;1.08;;;9.60;1.00;;;;;;20709482;28;20045;-41
2023/03/26 14:46:25;;;;;;;1.67;0.82;;;9.80;1.00;;;;;;20739668;28;20045;-41
2023/03/26 14:57:00;;;;;;;2.72;1.58;;;9.80;1.00;;;;;;20734144;28;20045;-41
2023/03/26 15:07:04;;;;;;;1.75;0.80;;;9.80;1.00;;;;;;20723474;28;20037;-41
2023/03/26 15:17:07;;;;;;;4.10;0.82;;;9.80;1.00;;;;;;20723691;28;20049;-41
2023/03/26 15:27:37;;;;;;;3.80;1.42;;;9.70;1.00;;;;;;20742702;28;20292;-41
2023/03/26 15:38:04;;;;;;;4.63;1.38;;;9.30;1.00;;;;;;20732349;28;20487;-41
2023/03/26 15:48:11;;;;;;;1.53;0.33;;;9.00;1.00;;;;;;20767970;28;20048;-41
2023/03/26 15:58:25;;;;;;;4.73;1.17;;;8.90;1.00;;;;;;20748321;28;20392;-41
2023/03/26 16:09:06;;;;;;;1.73;0.60;;;8.70;1.00;;;;;;20746665;28;20041;-41
2023/03/26 16:19:20;;;;;;;4.40;1.73;;;8.70;1.00;;;;;;20724741;28;20493;-41
2023/03/26 16:29:27;;;;;;;2.50;1.00;;;8.40;1.00;;;;;;20714214;28;20041;-41
2023/03/26 16:39:39;;;;;;;5.00;2.15;;;8.20;1.00;;;;;;20711671;28;20049;-41
2023/03/26 16:50:10;;;;;;;3.30;1.55;;;7.90;1.00;;;;;;20725444;28;20508;-40
2023/03/26 17:00:15;;;;;;;6.53;2.33;;;8.00;1.00;;;;;;20722534;28;21496;-41
2023/03/26 17:10:30;;;;;;;8.07;2.88;;;8.00;1.00;;;;;;20718881;28;20041;-41
2023/03/26 17:20:49;;;;;;;4.70;1.73;;;7.90;1.00;;;;;;20715619;28;20061;-41
2023/03/26 17:31:00;;;;;;;3.65;0.40;;;7.90;1.00;;;;;;20710934;28;20424;-41
2023/03/26 17:41:03;;;;;;;0.73;0.45;;;7.70;1.00;;;;;;20719323;28;20222;-41
2023/03/26 17:51:35;;;;;;;10.43;0.73;;;7.60;1.00;;;;;;20717347;28;20057;-41
2023/03/26 18:01:42;;;;;;;7.50;2.47;;;7.60;1.00;;;;;;20726893;28;20042;-41
2023/03/26 18:12:01;;;;;;;6.53;2.60;;;7.40;1.00;;;;;;20708427;28;20065;-41
2023/03/26 18:22:04;;;;;;;3.60;0.85;;;7.20;1.00;;;;;;20698072;28;20489;-41
2023/03/26 18:32:08;;;;;;;5.72;2.08;;;7.10;1.00;;;;;;20738690;28;20041;-41
2023/03/26 18:42:21;;;;;;;2.92;1.45;;;7.20;1.00;;;;;;20751632;28;20042;-41
2023/03/26 18:52:22;;;;;;;2.40;1.17;;;7.40;1.00;;;;;;20699222;28;20515;-41
2023/03/26 19:02:23;;;;;;;4.00;1.15;;;7.30;1.00;;;;;;20699663;28;20041;-41
2023/03/26 19:12:31;;;;;;;1.25;0.40;;;7.20;1.00;;;;;;20708448;28;20029;-41
2023/03/26 19:22:33;;;;;;;1.40;0.43;;;7.10;1.00;;;;;;20758716;28;20060;-41
2023/03/26 19:32:35;;;;;;;1.60;0.40;;;7.00;1.00;;;;;;20765747;28;20038;-41
2023/03/26 19:42:37;;;;;;;2.03;0.40;;;7.00;1.00;;;;;;20780498;28;20052;-41
2023/03/26 19:52:38;;;;;;;14.43;0.47;;;6.90;1.00;;;;;;20732809;28;20040;-41
2023/03/26 20:02:41;;;;;;;1.58;0.63;;;6.90;1.00;;;;;;20725718;28;20045;-41
2023/03/26 20:12:42;;;;;;;2.13;0.50;;;6.90;1.00;;;;;;20785497;28;20279;-41
2023/03/26 20:22:45;;;;;;;5.32;0.55;;;7.00;1.00;;;;;;20725933;28;20053;-41
2023/03/26 20:32:49;;;;;;;6.18;0.55;;;6.90;1.00;;;;;;20715856;28;20037;-41
2023/03/26 20:42:50;;;;;;;4.10;1.10;;;6.80;1.00;;;;;;20704726;28;20123;-41
2023/03/26 20:52:52;;;;;;;3.42;1.23;;;6.60;1.00;;;;;;20711072;28;20060;-41
2023/03/26 21:02:55;;;;;;;6.82;1.50;;;6.50;1.00;;;;;;20714854;28;20046;-41
2023/03/26 21:12:59;;;;;;;1.35;0.20;;;6.40;1.00;;;;;;20708364;28;20056;-41
2023/03/26 21:23:26;;;;;;;1.83;1.13;;;6.20;1.00;;;;;;20715201;28;20049;-41
2023/03/26 21:33:27;;;;;;;1.60;0.80;;;6.00;1.00;;;;;;20721581;28;20477;-41
2023/03/26 21:43:28;;;;;;;1.27;0.57;;;5.80;1.00;;;;;;20707765;28;20591;-41
2023/03/26 21:53:30;;;;;;;11.05;0.80;;;5.90;1.00;;;;;;20715759;28;20056;-41
2023/03/26 22:03:45;;;;;;;0.85;0.73;;;5.80;1.00;;;;;;20709523;28;20089;-41
2023/03/26 22:13:48;;;;;;;9.63;0.88;;;5.80;1.00;;;;;;20704061;28;20064;-41
2023/03/26 22:23:53;;;;;;;1.27;0.30;;;5.60;1.00;;;;;;20709284;28;20045;-41
2023/03/26 22:33:54;;;;;;;0.95;0.55;;;5.70;1.00;;;;;;20708924;28;20472;-41
2023/03/26 22:43:57;;;;;;;7.18;2.00;;;5.60;1.00;;;;;;20708507;28;20045;-41
2023/03/26 22:53:58;;;;;;;1.17;0.47;;;5.50;1.00;;;;;;20716279;28;20037;-41
2023/03/26 23:03:59;;;;;;;2.38;0.65;;;5.40;1.00;;;;;;20720213;28;20132;-41
2023/03/26 23:14:00;;;;;;;2.05;0.85;;;5.30;1.00;;;;;;20709038;28;21823;-42
2023/03/26 23:24:04;;;;;;;0.88;0.30;;;5.30;1.00;;;;;;20694015;28;20046;-41
2023/03/26 23:34:05;;;;;;;3.05;0.73;;;5.10;1.00;;;;;;20716061;28;20037;-41
2023/03/26 23:44:06;;;;;;;2.55;1.05;;;5.00;1.00;;;;;;20717259;28;21224;-41
2023/03/26 23:54:07;;;;;;;1.00;0.60;;;4.80;1.00;;;;;;20731207;28;20048;-41
